Parkside, New York
Current Conditions -  °F | °C
As of 12:51 AM on Thursday 27 Nov 2014 (Local Time) from KLGA Reporting Station
Overcast Overcast  
Wind Chill: 25°   Ceiling: 6000
Heat Index: 36°   Visibility: 10mi
Dew Point: 31°   Wind: 20mph
Humidity: 82%   Direction: 330°NNW
Pressure: 29.84"   Gusts: 29mph
Location:  40.7228°N, 73.845°W
Report Text: KLGA 270551Z 33017G25KT 10SM SCT050 OVC060 02/M01 A2984 RMK AO2 PK WND 33027/0541 CIG 049 R22 SW SLP106 931000 60007 T00221006 10028 20017 53017
Loading
Personal Weather Stations






























Interactive Weather Map New forecast layout! Learn more

10-Day Weather Forecast

Advertisements
Track Severe Weather on mobile